createdAt,value
2018-06-04T00:02:54.275Z,1014
2018-06-04T00:07:54.251Z,1013.8
2018-06-04T00:12:54.433Z,1013.8
2018-06-04T00:17:54.486Z,1013.9
2018-06-04T00:22:54.256Z,1013.8
2018-06-04T00:27:54.383Z,1013.8
2018-06-04T00:32:55.140Z,1013.8
2018-06-04T00:37:55.024Z,1013.6
2018-06-04T00:43:07.406Z,1013.6
2018-06-04T00:48:07.271Z,1013.5
2018-06-04T00:53:07.315Z,1013.5
2018-06-04T00:58:07.359Z,1013.5
2018-06-04T01:03:07.281Z,1013.5
2018-06-04T01:08:07.143Z,1013.5
2018-06-04T01:13:07.346Z,1013.5
2018-06-04T01:18:09.411Z,1013.4
2018-06-04T01:23:09.145Z,1013.4
2018-06-04T01:28:21.545Z,1013.4
2018-06-04T01:33:21.279Z,1013.3
2018-06-04T01:38:21.436Z,1013.3
2018-06-04T01:43:21.282Z,1013.3
2018-06-04T01:48:21.512Z,1013.2
2018-06-04T01:53:21.432Z,1013.2
2018-06-04T01:58:21.296Z,1013.2
2018-06-04T02:03:22.432Z,1013.3
2018-06-04T02:08:22.228Z,1013.2
2018-06-04T02:13:34.885Z,1013.1
2018-06-04T02:18:34.602Z,1013.1
2018-06-04T02:23:34.739Z,1013.1
2018-06-04T02:28:34.844Z,1013.1
2018-06-04T02:33:34.559Z,1013.1
2018-06-04T02:38:34.757Z,1013.1
2018-06-04T02:43:34.792Z,1013
2018-06-04T02:48:37.752Z,1013.1
2018-06-04T02:53:37.622Z,1013.1
2018-06-04T02:58:50.231Z,1013.1
2018-06-04T03:03:50.077Z,1012.9
2018-06-04T03:08:50.114Z,1013.1
2018-06-04T03:13:50.149Z,1013
2018-06-04T03:18:49.956Z,1013
2018-06-04T03:23:50.117Z,1013
2018-06-04T03:28:49.995Z,1013
2018-06-04T03:33:50.200Z,1013
2018-06-04T03:38:50.191Z,1013.1
2018-06-04T03:44:01.984Z,1013
2018-06-04T03:49:01.836Z,1013.1
2018-06-04T03:54:01.754Z,1013
2018-06-04T03:59:01.929Z,1013
2018-06-04T04:04:01.876Z,1012.9
2018-06-04T04:09:01.881Z,1012.9
2018-06-04T04:14:01.799Z,1012.8
2018-06-04T04:19:01.962Z,1012.8
2018-06-04T04:24:02.216Z,1012.7
2018-06-04T04:29:16.917Z,1012.8
2018-06-04T04:34:16.822Z,1012.8
2018-06-04T04:39:16.616Z,1012.8
2018-06-04T04:44:16.789Z,1012.8
2018-06-04T04:49:16.818Z,1012.7
2018-06-04T04:54:16.840Z,1012.7
2018-06-04T04:59:16.799Z,1012.5
2018-06-04T05:04:18.966Z,1012.5
2018-06-04T05:09:18.934Z,1012.6
2018-06-04T05:14:29.201Z,1012.4
2018-06-04T05:19:29.124Z,1012.4
2018-06-04T05:24:29.008Z,1012.4
2018-06-04T05:29:29.046Z,1012.2
2018-06-04T05:34:29.112Z,1012.1
2018-06-04T05:39:28.932Z,1012.1
2018-06-04T05:44:29.725Z,1012
2018-06-04T05:49:30.374Z,1012
2018-06-04T05:54:33.235Z,1011.8
2018-06-04T05:59:42.394Z,1011.8
2018-06-04T06:04:42.158Z,1011.8
2018-06-04T06:09:42.367Z,1011.7
2018-06-04T06:14:42.279Z,1011.6
2018-06-04T06:19:42.168Z,1011.6
2018-06-04T06:24:42.352Z,1011.4
2018-06-04T06:29:42.122Z,1011.5
2018-06-04T06:34:44.883Z,1011.3
2018-06-04T06:39:44.710Z,1011.3
2018-06-04T06:44:54.351Z,1011.3
2018-06-04T06:49:54.054Z,1011.2
2018-06-04T06:54:54.281Z,1011.2
2018-06-04T06:59:54.087Z,1011
2018-06-04T07:04:54.289Z,1011
2018-06-04T07:09:54.081Z,1011
2018-06-04T07:14:54.101Z,1011
2018-06-04T07:19:54.394Z,1010.9
2018-06-04T07:24:54.312Z,1010.8
2018-06-04T07:30:06.575Z,1010.9
2018-06-04T07:35:06.516Z,1010.8
2018-06-04T07:40:06.512Z,1010.7
2018-06-04T07:45:06.734Z,1010.6
2018-06-04T07:50:06.528Z,1010.6
2018-06-04T07:55:06.611Z,1010.6
2018-06-04T08:00:06.580Z,1010.5
2018-06-04T08:05:07.606Z,1010.5
2018-06-04T08:10:07.928Z,1010.4
2018-06-04T08:15:20.080Z,1010.6
2018-06-04T08:20:19.970Z,1010.5
2018-06-04T08:25:20.018Z,1010.4
2018-06-04T08:30:19.875Z,1010.4
2018-06-04T08:35:19.983Z,1010.4
2018-06-04T08:40:20.221Z,1010.2
2018-06-04T08:45:20.090Z,1010.2
2018-06-04T08:50:23.259Z,1010.1
2018-06-04T08:55:23.201Z,1010.2
2018-06-04T09:00:35.711Z,1010
2018-06-04T09:05:35.656Z,1010
2018-06-04T09:10:35.583Z,1010
2018-06-04T09:15:35.607Z,1009.8
2018-06-04T09:20:35.607Z,1009.8
2018-06-04T09:25:35.688Z,1009.9
2018-06-04T09:30:35.621Z,1009.9
2018-06-04T09:35:35.969Z,1009.8
2018-06-04T09:40:35.893Z,1009.7
2018-06-04T09:45:48.751Z,1009.6
2018-06-04T09:50:48.614Z,1009.5
2018-06-04T09:55:48.617Z,1009.5
2018-06-04T10:00:48.802Z,1009.3
2018-06-04T10:05:48.591Z,1009.4
2018-06-04T10:10:48.588Z,1009.2
2018-06-04T10:15:48.612Z,1009.1
2018-06-04T10:20:49.731Z,1009.1
2018-06-04T10:25:49.634Z,1009.1
2018-06-04T10:31:02.385Z,1009
2018-06-04T10:36:02.280Z,1008.8
2018-06-04T10:41:02.107Z,1008.8
2018-06-04T10:46:02.361Z,1008.7
2018-06-04T10:51:02.129Z,1008.5
2018-06-04T10:56:05.448Z,1008.5
2018-06-04T11:01:05.623Z,1008.5
2018-06-04T11:06:05.464Z,1008.3
2018-06-04T11:11:05.478Z,1008.1
2018-06-04T11:16:17.191Z,1008.1
2018-06-04T11:21:17.117Z,1008.1
2018-06-04T11:26:17.147Z,1007.9
2018-06-04T11:31:17.073Z,1007.8
2018-06-04T11:36:17.152Z,1007.8
2018-06-04T11:41:16.991Z,1007.7
2018-06-04T11:46:18.998Z,1007.7
2018-06-04T11:51:16.944Z,1007.6
2018-06-04T11:56:17.159Z,1007.6
2018-06-04T12:01:17.098Z,1007.6
2018-06-04T12:06:16.956Z,1007.4
2018-06-04T12:11:16.969Z,1007.4
2018-06-04T12:16:17.302Z,1007.4
2018-06-04T12:21:17.245Z,1007.4
2018-06-04T12:26:29.848Z,1007.3
2018-06-04T12:31:29.804Z,1007.3
2018-06-04T12:36:29.583Z,1007.2
2018-06-04T12:41:29.750Z,1007.2
2018-06-04T12:46:29.600Z,1007.1
2018-06-04T12:51:29.834Z,1007.1
2018-06-04T12:56:29.726Z,1007.1
2018-06-04T13:01:30.756Z,1007
2018-06-04T13:06:30.489Z,1006.9
2018-06-04T13:11:43.263Z,1006.8
2018-06-04T13:16:43.193Z,1006.8
2018-06-04T13:21:43.136Z,1007
2018-06-04T13:26:43.229Z,1007
2018-06-04T13:31:43.191Z,1006.7
2018-06-04T13:36:43.219Z,1006.9
2018-06-04T13:41:43.185Z,1006.8
2018-06-04T13:46:44.422Z,1006.5
2018-06-04T13:51:44.290Z,1006.4
2018-06-04T13:56:57.019Z,1006.4
2018-06-04T14:01:56.766Z,1006.4
2018-06-04T14:06:56.972Z,1006
2018-06-04T14:11:56.888Z,1006.1
2018-06-04T14:16:56.919Z,1006
2018-06-04T14:21:56.860Z,1005.9
2018-06-04T14:26:56.752Z,1005.8
2018-06-04T14:31:57.558Z,1005.9
2018-06-04T14:36:57.278Z,1005.8
2018-06-04T14:42:09.856Z,1005.8
2018-06-04T14:47:09.597Z,1005.7
2018-06-04T14:52:09.590Z,1005.6
2018-06-04T14:57:10.211Z,1005.6
2018-06-04T15:02:09.601Z,1005.6
2018-06-04T15:07:09.661Z,1005.6
2018-06-04T15:12:09.631Z,1005.6
2018-06-04T15:17:09.604Z,1005.5
2018-06-04T15:22:09.745Z,1005.7
2018-06-04T15:27:21.654Z,1005.7
2018-06-04T15:32:21.699Z,1005.7
2018-06-04T15:37:21.410Z,1005.7
2018-06-04T15:42:21.574Z,1005.7
2018-06-04T15:47:21.392Z,1005.7
2018-06-04T15:52:21.399Z,1005.7
2018-06-04T15:57:21.555Z,1005.7
2018-06-04T16:02:21.611Z,1005.7
2018-06-04T16:07:21.566Z,1005.9
2018-06-04T16:12:21.421Z,1005.9
2018-06-04T16:17:21.354Z,1005.8
2018-06-04T16:22:21.421Z,1005.8
2018-06-04T16:27:21.426Z,1005.9
2018-06-04T16:32:21.433Z,1005.8
2018-06-04T16:37:34.276Z,1005.8
2018-06-04T16:42:33.661Z,1005.8
2018-06-04T16:47:33.467Z,1005.9
2018-06-04T16:52:33.490Z,1005.9
2018-06-04T16:57:33.453Z,1005.8
2018-06-04T17:02:33.721Z,1005.8
2018-06-04T17:07:33.875Z,1005.8
2018-06-04T17:12:34.543Z,1005.8
2018-06-04T17:17:34.234Z,1006
2018-06-04T17:22:46.933Z,1006
2018-06-04T17:27:46.862Z,1006
2018-06-04T17:32:46.911Z,1006
2018-06-04T17:37:46.685Z,1006.1
2018-06-04T17:42:46.662Z,1006.1
2018-06-04T17:47:46.904Z,1006
2018-06-04T17:52:46.712Z,1006
2018-06-04T17:57:50.124Z,1006
2018-06-04T18:02:49.820Z,1006.1
2018-06-04T18:08:00.695Z,1006
2018-06-04T18:12:59.778Z,1006.2
2018-06-04T18:17:59.751Z,1006.1
2018-06-04T18:22:59.750Z,1006.2
2018-06-04T18:27:59.887Z,1006.3
2018-06-04T18:33:00.139Z,1006.3
2018-06-04T18:38:00.019Z,1006.3
2018-06-04T18:43:02.147Z,1006.4
2018-06-04T18:48:01.721Z,1006.5
2018-06-04T18:53:13.962Z,1006.6
2018-06-04T18:58:13.663Z,1006.6
2018-06-04T19:03:13.667Z,1006.7
2018-06-04T19:08:13.722Z,1006.9
2018-06-04T19:13:13.666Z,1006.9
2018-06-04T19:18:13.648Z,1007
2018-06-04T19:23:13.694Z,1007
2018-06-04T19:28:13.721Z,1007
2018-06-04T19:33:13.706Z,1007
2018-06-04T19:38:26.083Z,1007.2
2018-06-04T19:43:25.243Z,1007.1
2018-06-04T19:48:25.564Z,1007.1
2018-06-04T19:53:25.226Z,1007.2
2018-06-04T19:58:25.303Z,1007.2
2018-06-04T20:03:25.307Z,1007.4
2018-06-04T20:08:25.527Z,1007.4
2018-06-04T20:13:27.672Z,1007.5
2018-06-04T20:18:27.563Z,1007.5
2018-06-04T20:23:40.269Z,1007.5
2018-06-04T20:28:40.222Z,1007.7
2018-06-04T20:33:40.389Z,1007.6
2018-06-04T20:38:40.344Z,1007.7
2018-06-04T20:43:40.283Z,1007.7
2018-06-04T20:48:40.533Z,1007.7
2018-06-04T20:53:40.263Z,1007.7
2018-06-04T20:58:40.599Z,1007.9
2018-06-04T21:03:40.270Z,1007.9
2018-06-04T21:08:52.578Z,1008
2018-06-04T21:13:52.301Z,1007.9
2018-06-04T21:18:55.395Z,1008.1
2018-06-04T21:23:52.186Z,1008.2
2018-06-04T21:28:52.423Z,1008.2
2018-06-04T21:33:52.220Z,1008.1
2018-06-04T21:38:52.367Z,1008.1
2018-06-04T21:43:52.195Z,1008.1
2018-06-04T21:48:52.237Z,1008.1
2018-06-04T21:53:52.353Z,1008.3
2018-06-04T21:58:52.394Z,1008.3
2018-06-04T22:03:52.200Z,1008.2
2018-06-04T22:08:52.467Z,1008.2
2018-06-04T22:13:52.708Z,1008.2
2018-06-04T22:19:04.380Z,1008.3
2018-06-04T22:24:04.111Z,1008.3
2018-06-04T22:29:04.119Z,1008.3
2018-06-04T22:34:04.527Z,1008.3
2018-06-04T22:39:04.115Z,1008.3
2018-06-04T22:44:04.264Z,1008.3
2018-06-04T22:49:04.309Z,1008.3
2018-06-04T22:54:04.350Z,1008.2
2018-06-04T22:59:04.369Z,1008.3
2018-06-04T23:04:16.394Z,1008.3
2018-06-04T23:09:16.098Z,1008.4
2018-06-04T23:14:16.256Z,1008.5
2018-06-04T23:19:16.124Z,1008.4
2018-06-04T23:24:16.115Z,1008.4
2018-06-04T23:29:16.123Z,1008.4
2018-06-04T23:34:16.292Z,1008.4
2018-06-04T23:39:19.092Z,1008.4
2018-06-04T23:44:19.035Z,1008.3
2018-06-04T23:49:31.433Z,1008.4
2018-06-04T23:54:31.157Z,1008.4
2018-06-04T23:59:31.154Z,1008.5
